| Date | Time | Temp. (oF) | Dew Point (oF) | Rel. Hum. (%) | Press. (in.) | Wind Dir. | Wind Speed (mph) | Hourly Rainfall (in.) |
|
|---|---|---|---|---|---|---|---|---|---|
| 1 | 03/23 | 00:00 | 50 | 37 | 61 | 29.91 | WNW | 4 | 0.00 |
| 2 | 03/22 | 23:00 | 53 | 38 | 57 | 29.90 | WNW | 5 | 0.00 |
| 3 | 03/22 | 22:00 | 53 | 37 | 55 | 29.90 | NW | 2 | 0.00 |
| 4 | 03/22 | 21:00 | 54 | 36 | 52 | 29.88 | W | 6 | 0.00 |
| 5 | 03/22 | 20:00 | 55 | 38 | 53 | 29.87 | WNW | 4 | 0.00 |
| 6 | 03/22 | 19:00 | 56 | 38 | 51 | 29.86 | WSW | 2 | 0.00 |
| 7 | 03/22 | 18:00 | 58 | 38 | 48 | 29.83 | NW | 6 | 0.00 |
| 8 | 03/22 | 17:00 | 60 | 38 | 45 | 29.79 | W | 9 | 0.00 |
| 9 | 03/22 | 16:00 | 62 | 39 | 43 | 29.77 | SSW | 9 | 0.00 |
| 10 | 03/22 | 15:00 | 62 | 39 | 44 | 29.77 | WNW | 5 | 0.00 |
| 11 | 03/22 | 14:00 | 62 | 40 | 45 | 29.79 | WSW | 15 | 0.00 |
| 12 | 03/22 | 13:00 | 60 | 41 | 50 | 29.82 | W | 11 | 0.00 |
| 13 | 03/22 | 12:00 | 58 | 39 | 50 | 29.85 | W | 9 | 0.00 |
| 14 | 03/22 | 11:00 | 56 | 39 | 55 | 29.88 | WSW | 7 | 0.00 |
| 15 | 03/22 | 10:00 | 54 | 39 | 58 | 29.89 | W | 9 | 0.00 |
| 16 | 03/22 | 09:00 | 52 | 40 | 66 | 29.88 | NW | 13 | 0.00 |
| 17 | 03/22 | 08:00 | 49 | 49 | 100 | 29.87 | WNW | 11 | 0.00 |
| 18 | 03/22 | 07:00 | 42 | 41 | 100 | 29.85 | SE | 0 | 0.00 |
| 19 | 03/22 | 06:00 | 42 | 41 | 100 | 29.82 | WNW | 0 | 0.00 |
| 20 | 03/22 | 05:00 | 45 | 45 | 100 | 29.80 | NW | 2 | 0.00 |
| 21 | 03/22 | 04:00 | 44 | 44 | 100 | 29.79 | SW | 3 | 0.00 |
| 22 | 03/22 | 03:00 | 45 | 45 | 100 | 29.78 | NNW | 1 | 0.00 |
| 23 | 03/22 | 02:00 | 46 | 45 | 100 | 29.78 | S | 1 | 0.00 |
| 24 | 03/22 | 01:00 | 47 | 46 | 100 | 29.76 | WNW | 4 | 0.00 |